sensor_id;sensor_type;location;lat;lon;timestamp;P1;durP1;ratioP1;P2;durP2;ratioP2
21386;SDS011;10854;45.922;6.716;2023-06-14T00:00:07;8.40;;;6.47;;
21386;SDS011;10854;45.922;6.716;2023-06-14T00:02:39;8.43;;;6.70;;
21386;SDS011;10854;45.922;6.716;2023-06-14T00:05:08;7.93;;;6.23;;
21386;SDS011;10854;45.922;6.716;2023-06-14T00:07:40;7.30;;;6.60;;
21386;SDS011;10854;45.922;6.716;2023-06-14T00:10:16;7.27;;;6.57;;
21386;SDS011;10854;45.922;6.716;2023-06-14T00:12:45;7.40;;;6.80;;
21386;SDS011;10854;45.922;6.716;2023-06-14T00:15:14;7.00;;;6.30;;
21386;SDS011;10854;45.922;6.716;2023-06-14T00:17:43;7.40;;;6.33;;
21386;SDS011;10854;45.922;6.716;2023-06-14T00:20:15;7.13;;;6.43;;
21386;SDS011;10854;45.922;6.716;2023-06-14T00:22:44;6.90;;;6.30;;
21386;SDS011;10854;45.922;6.716;2023-06-14T00:25:13;7.43;;;6.77;;
21386;SDS011;10854;45.922;6.716;2023-06-14T00:27:50;8.40;;;6.47;;
21386;SDS011;10854;45.922;6.716;2023-06-14T00:30:20;7.93;;;7.13;;
21386;SDS011;10854;45.922;6.716;2023-06-14T00:32:49;7.30;;;6.60;;
21386;SDS011;10854;45.922;6.716;2023-06-14T00:35:20;7.73;;;7.03;;
21386;SDS011;10854;45.922;6.716;2023-06-14T00:37:49;8.10;;;6.80;;
21386;SDS011;10854;45.922;6.716;2023-06-14T00:40:18;7.83;;;7.13;;
21386;SDS011;10854;45.922;6.716;2023-06-14T00:42:47;8.03;;;7.23;;
21386;SDS011;10854;45.922;6.716;2023-06-14T00:45:16;8.07;;;6.87;;
21386;SDS011;10854;45.922;6.716;2023-06-14T00:47:45;8.43;;;7.53;;
21386;SDS011;10854;45.922;6.716;2023-06-14T00:50:15;9.17;;;7.50;;
21386;SDS011;10854;45.922;6.716;2023-06-14T00:52:45;8.10;;;7.40;;
21386;SDS011;10854;45.922;6.716;2023-06-14T00:55:14;8.77;;;7.50;;
21386;SDS011;10854;45.922;6.716;2023-06-14T00:57:43;8.93;;;7.63;;
21386;SDS011;10854;45.922;6.716;2023-06-14T01:00:13;9.00;;;7.30;;
21386;SDS011;10854;45.922;6.716;2023-06-14T01:02:43;8.90;;;8.00;;
21386;SDS011;10854;45.922;6.716;2023-06-14T01:05:13;7.90;;;7.03;;
21386;SDS011;10854;45.922;6.716;2023-06-14T01:10:32;7.80;;;6.83;;
21386;SDS011;10854;45.922;6.716;2023-06-14T01:13:12;7.83;;;6.63;;
21386;SDS011;10854;45.922;6.716;2023-06-14T01:15:48;7.60;;;6.83;;
21386;SDS011;10854;45.922;6.716;2023-06-14T01:18:19;7.00;;;6.30;;
21386;SDS011;10854;45.922;6.716;2023-06-14T01:20:48;7.63;;;6.90;;
21386;SDS011;10854;45.922;6.716;2023-06-14T01:23:20;8.97;;;7.27;;
21386;SDS011;10854;45.922;6.716;2023-06-14T01:25:51;8.50;;;7.70;;
21386;SDS011;10854;45.922;6.716;2023-06-14T01:28:23;9.23;;;6.80;;
21386;SDS011;10854;45.922;6.716;2023-06-14T01:30:54;6.90;;;6.20;;
21386;SDS011;10854;45.922;6.716;2023-06-14T01:33:24;9.10;;;6.90;;
21386;SDS011;10854;45.922;6.716;2023-06-14T01:35:55;7.07;;;6.43;;
21386;SDS011;10854;45.922;6.716;2023-06-14T01:38:26;7.70;;;6.67;;
21386;SDS011;10854;45.922;6.716;2023-06-14T01:40:58;7.80;;;7.00;;
21386;SDS011;10854;45.922;6.716;2023-06-14T01:43:29;7.63;;;6.87;;
21386;SDS011;10854;45.922;6.716;2023-06-14T01:45:59;7.90;;;7.10;;
21386;SDS011;10854;45.922;6.716;2023-06-14T01:48:30;9.20;;;7.27;;
21386;SDS011;10854;45.922;6.716;2023-06-14T01:50:59;9.57;;;7.80;;
21386;SDS011;10854;45.922;6.716;2023-06-14T01:53:29;8.93;;;7.63;;
21386;SDS011;10854;45.922;6.716;2023-06-14T01:55:58;8.57;;;6.97;;
21386;SDS011;10854;45.922;6.716;2023-06-14T01:58:27;7.83;;;7.13;;
21386;SDS011;10854;45.922;6.716;2023-06-14T02:00:56;8.90;;;7.03;;
21386;SDS011;10854;45.922;6.716;2023-06-14T02:03:26;8.20;;;7.37;;
21386;SDS011;10854;45.922;6.716;2023-06-14T02:05:55;8.00;;;7.20;;
21386;SDS011;10854;45.922;6.716;2023-06-14T02:08:24;7.70;;;7.00;;
21386;SDS011;10854;45.922;6.716;2023-06-14T02:10:53;7.80;;;7.10;;
21386;SDS011;10854;45.922;6.716;2023-06-14T02:13:21;8.03;;;7.33;;
21386;SDS011;10854;45.922;6.716;2023-06-14T02:15:50;8.13;;;7.43;;
21386;SDS011;10854;45.922;6.716;2023-06-14T02:18:22;8.03;;;7.13;;
21386;SDS011;10854;45.922;6.716;2023-06-14T02:20:51;7.73;;;6.53;;
21386;SDS011;10854;45.922;6.716;2023-06-14T02:23:21;7.47;;;6.77;;
21386;SDS011;10854;45.922;6.716;2023-06-14T02:25:50;8.23;;;7.07;;
21386;SDS011;10854;45.922;6.716;2023-06-14T02:28:18;8.30;;;6.70;;
21386;SDS011;10854;45.922;6.716;2023-06-14T02:30:48;6.87;;;6.27;;
21386;SDS011;10854;45.922;6.716;2023-06-14T02:33:17;7.97;;;6.13;;
21386;SDS011;10854;45.922;6.716;2023-06-14T02:35:46;7.83;;;6.53;;
21386;SDS011;10854;45.922;6.716;2023-06-14T02:38:15;6.83;;;6.23;;
21386;SDS011;10854;45.922;6.716;2023-06-14T02:40:45;7.37;;;6.60;;
21386;SDS011;10854;45.922;6.716;2023-06-14T02:43:14;7.13;;;6.43;;
21386;SDS011;10854;45.922;6.716;2023-06-14T02:45:45;6.73;;;6.13;;
21386;SDS011;10854;45.922;6.716;2023-06-14T02:48:14;8.37;;;6.73;;
21386;SDS011;10854;45.922;6.716;2023-06-14T02:50:43;8.77;;;6.30;;
21386;SDS011;10854;45.922;6.716;2023-06-14T02:53:12;6.60;;;6.00;;
21386;SDS011;10854;45.922;6.716;2023-06-14T02:55:41;6.87;;;6.17;;
21386;SDS011;10854;45.922;6.716;2023-06-14T02:58:10;6.97;;;6.37;;
21386;SDS011;10854;45.922;6.716;2023-06-14T03:00:39;6.97;;;5.80;;
21386;SDS011;10854;45.922;6.716;2023-06-14T03:03:08;7.80;;;6.00;;
21386;SDS011;10854;45.922;6.716;2023-06-14T03:05:43;7.37;;;6.67;;
21386;SDS011;10854;45.922;6.716;2023-06-14T03:08:17;6.43;;;5.73;;
21386;SDS011;10854;45.922;6.716;2023-06-14T03:10:48;6.90;;;6.20;;
21386;SDS011;10854;45.922;6.716;2023-06-14T03:13:18;7.23;;;6.53;;
21386;SDS011;10854;45.922;6.716;2023-06-14T03:15:50;8.80;;;6.60;;
21386;SDS011;10854;45.922;6.716;2023-06-14T03:18:19;8.57;;;6.33;;
21386;SDS011;10854;45.922;6.716;2023-06-14T03:20:51;6.77;;;6.17;;
21386;SDS011;10854;45.922;6.716;2023-06-14T03:23:21;7.10;;;6.43;;
21386;SDS011;10854;45.922;6.716;2023-06-14T03:25:51;7.60;;;6.73;;
21386;SDS011;10854;45.922;6.716;2023-06-14T03:28:21;7.27;;;6.40;;
21386;SDS011;10854;45.922;6.716;2023-06-14T03:30:50;7.40;;;6.73;;
21386;SDS011;10854;45.922;6.716;2023-06-14T03:33:19;7.23;;;6.63;;
21386;SDS011;10854;45.922;6.716;2023-06-14T03:35:48;7.73;;;6.93;;
21386;SDS011;10854;45.922;6.716;2023-06-14T03:38:18;7.90;;;7.20;;
21386;SDS011;10854;45.922;6.716;2023-06-14T03:40:47;7.60;;;6.83;;
21386;SDS011;10854;45.922;6.716;2023-06-14T03:43:16;10.97;;;7.17;;
21386;SDS011;10854;45.922;6.716;2023-06-14T03:45:44;7.70;;;6.90;;
21386;SDS011;10854;45.922;6.716;2023-06-14T03:48:14;8.10;;;7.33;;
21386;SDS011;10854;45.922;6.716;2023-06-14T03:50:43;8.47;;;7.67;;
21386;SDS011;10854;45.922;6.716;2023-06-14T03:53:12;7.30;;;6.70;;
21386;SDS011;10854;45.922;6.716;2023-06-14T03:55:41;8.10;;;7.30;;
21386;SDS011;10854;45.922;6.716;2023-06-14T03:58:13;10.07;;;7.60;;
21386;SDS011;10854;45.922;6.716;2023-06-14T04:00:43;8.67;;;6.97;;
21386;SDS011;10854;45.922;6.716;2023-06-14T04:03:13;8.53;;;6.90;;
21386;SDS011;10854;45.922;6.716;2023-06-14T04:05:43;9.70;;;6.43;;
21386;SDS011;10854;45.922;6.716;2023-06-14T04:08:12;6.50;;;5.90;;
21386;SDS011;10854;45.922;6.716;2023-06-14T04:10:42;6.60;;;6.00;;
21386;SDS011;10854;45.922;6.716;2023-06-14T04:13:12;6.57;;;5.93;;
21386;SDS011;10854;45.922;6.716;2023-06-14T04:15:41;6.50;;;5.90;;
21386;SDS011;10854;45.922;6.716;2023-06-14T04:18:11;6.50;;;5.70;;
21386;SDS011;10854;45.922;6.716;2023-06-14T04:20:40;6.60;;;5.87;;
21386;SDS011;10854;45.922;6.716;2023-06-14T04:23:16;6.70;;;6.07;;
21386;SDS011;10854;45.922;6.716;2023-06-14T04:25:46;8.40;;;6.73;;
21386;SDS011;10854;45.922;6.716;2023-06-14T04:28:16;6.97;;;6.27;;
21386;SDS011;10854;45.922;6.716;2023-06-14T04:30:46;7.63;;;6.30;;
21386;SDS011;10854;45.922;6.716;2023-06-14T04:33:16;8.30;;;6.63;;
21386;SDS011;10854;45.922;6.716;2023-06-14T04:35:46;6.80;;;6.20;;
21386;SDS011;10854;45.922;6.716;2023-06-14T04:38:16;7.40;;;5.90;;
21386;SDS011;10854;45.922;6.716;2023-06-14T04:40:46;8.87;;;5.90;;
21386;SDS011;10854;45.922;6.716;2023-06-14T04:43:15;8.63;;;6.47;;
21386;SDS011;10854;45.922;6.716;2023-06-14T04:45:46;7.20;;;5.90;;
21386;SDS011;10854;45.922;6.716;2023-06-14T04:48:15;7.07;;;6.17;;
21386;SDS011;10854;45.922;6.716;2023-06-14T04:50:48;8.23;;;6.60;;
21386;SDS011;10854;45.922;6.716;2023-06-14T04:53:20;7.20;;;6.50;;
21386;SDS011;10854;45.922;6.716;2023-06-14T04:55:50;8.10;;;6.27;;
21386;SDS011;10854;45.922;6.716;2023-06-14T04:58:20;6.60;;;6.00;;
21386;SDS011;10854;45.922;6.716;2023-06-14T05:00:49;6.50;;;5.90;;
21386;SDS011;10854;45.922;6.716;2023-06-14T05:03:18;6.83;;;5.90;;
21386;SDS011;10854;45.922;6.716;2023-06-14T05:05:49;6.87;;;6.20;;
21386;SDS011;10854;45.922;6.716;2023-06-14T05:08:19;19.47;;;14.60;;
21386;SDS011;10854;45.922;6.716;2023-06-14T05:10:53;31.37;;;21.67;;
21386;SDS011;10854;45.922;6.716;2023-06-14T05:13:22;22.20;;;15.13;;
21386;SDS011;10854;45.922;6.716;2023-06-14T05:15:51;11.73;;;10.50;;
21386;SDS011;10854;45.922;6.716;2023-06-14T05:18:21;19.17;;;14.13;;
21386;SDS011;10854;45.922;6.716;2023-06-14T05:20:50;8.77;;;7.87;;
21386;SDS011;10854;45.922;6.716;2023-06-14T05:23:19;9.50;;;7.90;;
21386;SDS011;10854;45.922;6.716;2023-06-14T05:25:48;9.97;;;7.70;;
21386;SDS011;10854;45.922;6.716;2023-06-14T05:28:17;7.93;;;6.40;;
21386;SDS011;10854;45.922;6.716;2023-06-14T05:30:46;8.07;;;6.47;;
21386;SDS011;10854;45.922;6.716;2023-06-14T05:33:17;6.63;;;5.67;;
21386;SDS011;10854;45.922;6.716;2023-06-14T05:35:46;5.33;;;4.57;;
21386;SDS011;10854;45.922;6.716;2023-06-14T05:38:15;7.53;;;5.07;;
21386;SDS011;10854;45.922;6.716;2023-06-14T05:40:44;6.80;;;5.20;;
21386;SDS011;10854;45.922;6.716;2023-06-14T05:43:13;6.03;;;4.87;;
21386;SDS011;10854;45.922;6.716;2023-06-14T05:45:42;7.53;;;4.72;;
21386;SDS011;10854;45.922;6.716;2023-06-14T05:48:11;5.47;;;4.47;;
21386;SDS011;10854;45.922;6.716;2023-06-14T05:50:40;5.00;;;4.60;;
21386;SDS011;10854;45.922;6.716;2023-06-14T05:53:09;6.72;;;4.68;;
21386;SDS011;10854;45.922;6.716;2023-06-14T05:55:38;5.85;;;4.90;;
21386;SDS011;10854;45.922;6.716;2023-06-14T05:58:08;7.95;;;4.90;;
21386;SDS011;10854;45.922;6.716;2023-06-14T06:00:38;7.47;;;5.03;;
21386;SDS011;10854;45.922;6.716;2023-06-14T06:03:07;5.07;;;4.60;;
21386;SDS011;10854;45.922;6.716;2023-06-14T06:05:37;7.47;;;4.55;;
21386;SDS011;10854;45.922;6.716;2023-06-14T06:08:06;7.80;;;5.75;;
21386;SDS011;10854;45.922;6.716;2023-06-14T06:10:35;7.10;;;5.43;;
21386;SDS011;10854;45.922;6.716;2023-06-14T06:13:04;5.47;;;5.00;;
21386;SDS011;10854;45.922;6.716;2023-06-14T06:15:33;6.18;;;5.57;;
21386;SDS011;10854;45.922;6.716;2023-06-14T06:18:03;8.63;;;5.22;;
21386;SDS011;10854;45.922;6.716;2023-06-14T06:20:32;6.45;;;5.22;;
21386;SDS011;10854;45.922;6.716;2023-06-14T06:23:02;5.75;;;5.25;;
21386;SDS011;10854;45.922;6.716;2023-06-14T06:25:31;7.03;;;4.88;;
21386;SDS011;10854;45.922;6.716;2023-06-14T06:27:59;6.68;;;5.45;;
21386;SDS011;10854;45.922;6.716;2023-06-14T06:30:28;6.07;;;5.50;;
21386;SDS011;10854;45.922;6.716;2023-06-14T06:32:57;6.07;;;5.53;;
21386;SDS011;10854;45.922;6.716;2023-06-14T06:35:26;5.50;;;5.00;;
21386;SDS011;10854;45.922;6.716;2023-06-14T06:37:54;6.82;;;4.85;;
21386;SDS011;10854;45.922;6.716;2023-06-14T06:40:23;5.30;;;4.80;;
21386;SDS011;10854;45.922;6.716;2023-06-14T06:42:51;5.68;;;5.18;;
21386;SDS011;10854;45.922;6.716;2023-06-14T06:45:20;6.88;;;4.93;;
21386;SDS011;10854;45.922;6.716;2023-06-14T06:47:51;7.50;;;5.03;;
21386;SDS011;10854;45.922;6.716;2023-06-14T06:50:20;5.95;;;4.88;;
21386;SDS011;10854;45.922;6.716;2023-06-14T06:52:50;6.30;;;4.57;;
21386;SDS011;10854;45.922;6.716;2023-06-14T06:55:19;5.32;;;4.85;;
21386;SDS011;10854;45.922;6.716;2023-06-14T06:57:48;5.13;;;4.43;;
21386;SDS011;10854;45.922;6.716;2023-06-14T07:00:17;15.32;;;5.75;;
21386;SDS011;10854;45.922;6.716;2023-06-14T07:02:47;7.05;;;5.55;;
21386;SDS011;10854;45.922;6.716;2023-06-14T07:05:15;5.63;;;5.10;;
21386;SDS011;10854;45.922;6.716;2023-06-14T07:07:44;7.18;;;5.10;;
21386;SDS011;10854;45.922;6.716;2023-06-14T07:10:12;5.70;;;4.95;;
21386;SDS011;10854;45.922;6.716;2023-06-14T07:12:42;5.40;;;4.90;;
21386;SDS011;10854;45.922;6.716;2023-06-14T07:15:10;7.65;;;5.20;;
21386;SDS011;10854;45.922;6.716;2023-06-14T07:17:39;6.90;;;5.10;;
21386;SDS011;10854;45.922;6.716;2023-06-14T07:20:09;6.35;;;5.13;;
21386;SDS011;10854;45.922;6.716;2023-06-14T07:22:41;5.90;;;5.35;;
21386;SDS011;10854;45.922;6.716;2023-06-14T07:25:10;6.57;;;5.40;;
21386;SDS011;10854;45.922;6.716;2023-06-14T07:27:44;5.28;;;4.85;;
21386;SDS011;10854;45.922;6.716;2023-06-14T07:30:13;5.43;;;4.97;;
21386;SDS011;10854;45.922;6.716;2023-06-14T07:32:42;5.55;;;5.03;;
21386;SDS011;10854;45.922;6.716;2023-06-14T07:35:11;5.45;;;5.05;;
21386;SDS011;10854;45.922;6.716;2023-06-14T07:37:39;6.47;;;4.85;;
21386;SDS011;10854;45.922;6.716;2023-06-14T07:40:11;6.47;;;5.20;;
21386;SDS011;10854;45.922;6.716;2023-06-14T07:42:42;5.70;;;5.20;;
21386;SDS011;10854;45.922;6.716;2023-06-14T07:45:13;5.35;;;4.85;;
21386;SDS011;10854;45.922;6.716;2023-06-14T07:47:42;6.72;;;5.20;;
21386;SDS011;10854;45.922;6.716;2023-06-14T07:50:11;5.07;;;4.60;;
21386;SDS011;10854;45.922;6.716;2023-06-14T07:52:41;6.28;;;4.65;;
21386;SDS011;10854;45.922;6.716;2023-06-14T07:55:09;5.78;;;5.22;;
21386;SDS011;10854;45.922;6.716;2023-06-14T07:57:37;5.97;;;5.38;;
21386;SDS011;10854;45.922;6.716;2023-06-14T08:00:06;5.57;;;5.07;;
21386;SDS011;10854;45.922;6.716;2023-06-14T08:02:36;5.32;;;4.63;;
21386;SDS011;10854;45.922;6.716;2023-06-14T08:05:04;5.38;;;4.88;;
21386;SDS011;10854;45.922;6.716;2023-06-14T08:07:33;5.82;;;5.32;;
21386;SDS011;10854;45.922;6.716;2023-06-14T08:10:01;7.95;;;5.95;;
21386;SDS011;10854;45.922;6.716;2023-06-14T08:12:31;5.80;;;5.13;;
21386;SDS011;10854;45.922;6.716;2023-06-14T08:15:00;6.20;;;5.57;;
21386;SDS011;10854;45.922;6.716;2023-06-14T08:17:39;8.93;;;5.90;;
21386;SDS011;10854;45.922;6.716;2023-06-14T08:20:09;5.57;;;4.93;;
21386;SDS011;10854;45.922;6.716;2023-06-14T08:22:38;5.90;;;5.22;;
21386;SDS011;10854;45.922;6.716;2023-06-14T08:25:09;5.80;;;5.05;;
21386;SDS011;10854;45.922;6.716;2023-06-14T08:27:39;5.35;;;4.93;;
21386;SDS011;10854;45.922;6.716;2023-06-14T08:30:08;5.80;;;5.20;;
21386;SDS011;10854;45.922;6.716;2023-06-14T08:32:37;5.40;;;4.95;;
21386;SDS011;10854;45.922;6.716;2023-06-14T08:35:06;7.35;;;5.88;;
21386;SDS011;10854;45.922;6.716;2023-06-14T08:37:38;6.15;;;5.60;;
21386;SDS011;10854;45.922;6.716;2023-06-14T08:40:18;6.20;;;5.60;;
21386;SDS011;10854;45.922;6.716;2023-06-14T08:42:52;6.47;;;5.65;;
21386;SDS011;10854;45.922;6.716;2023-06-14T08:45:24;8.90;;;6.07;;
21386;SDS011;10854;45.922;6.716;2023-06-14T08:47:56;6.35;;;5.15;;
21386;SDS011;10854;45.922;6.716;2023-06-14T08:50:27;7.20;;;5.72;;
21386;SDS011;10854;45.922;6.716;2023-06-14T08:53:00;7.78;;;5.68;;
21386;SDS011;10854;45.922;6.716;2023-06-14T08:55:30;6.95;;;6.05;;
21386;SDS011;10854;45.922;6.716;2023-06-14T08:58:02;6.10;;;5.50;;
21386;SDS011;10854;45.922;6.716;2023-06-14T09:00:30;6.43;;;5.00;;
21386;SDS011;10854;45.922;6.716;2023-06-14T09:03:00;9.18;;;5.28;;
21386;SDS011;10854;45.922;6.716;2023-06-14T09:05:30;5.28;;;4.78;;
21386;SDS011;10854;45.922;6.716;2023-06-14T09:07:59;6.22;;;5.63;;
21386;SDS011;10854;45.922;6.716;2023-06-14T09:10:30;7.38;;;5.18;;
21386;SDS011;10854;45.922;6.716;2023-06-14T09:13:05;5.68;;;5.18;;
21386;SDS011;10854;45.922;6.716;2023-06-14T09:15:34;6.95;;;5.88;;
21386;SDS011;10854;45.922;6.716;2023-06-14T09:18:03;6.28;;;5.65;;
21386;SDS011;10854;45.922;6.716;2023-06-14T09:20:33;8.70;;;5.60;;
21386;SDS011;10854;45.922;6.716;2023-06-14T09:23:02;5.43;;;5.00;;
21386;SDS011;10854;45.922;6.716;2023-06-14T09:25:41;5.75;;;5.20;;
21386;SDS011;10854;45.922;6.716;2023-06-14T09:28:14;6.30;;;5.70;;
21386;SDS011;10854;45.922;6.716;2023-06-14T09:30:43;5.82;;;5.43;;
21386;SDS011;10854;45.922;6.716;2023-06-14T09:33:16;5.55;;;5.05;;
21386;SDS011;10854;45.922;6.716;2023-06-14T09:35:51;6.07;;;5.57;;
21386;SDS011;10854;45.922;6.716;2023-06-14T09:38:20;7.45;;;5.43;;
21386;SDS011;10854;45.922;6.716;2023-06-14T09:40:49;6.05;;;5.45;;
21386;SDS011;10854;45.922;6.716;2023-06-14T09:43:18;9.18;;;5.80;;
21386;SDS011;10854;45.922;6.716;2023-06-14T09:45:49;9.95;;;5.75;;
21386;SDS011;10854;45.922;6.716;2023-06-14T09:48:19;5.88;;;5.07;;
21386;SDS011;10854;45.922;6.716;2023-06-14T09:50:49;6.03;;;5.15;;
21386;SDS011;10854;45.922;6.716;2023-06-14T09:53:20;7.88;;;5.55;;
21386;SDS011;10854;45.922;6.716;2023-06-14T09:55:53;5.65;;;5.15;;
21386;SDS011;10854;45.922;6.716;2023-06-14T09:58:26;6.32;;;5.30;;
21386;SDS011;10854;45.922;6.716;2023-06-14T10:00:57;6.10;;;5.60;;
21386;SDS011;10854;45.922;6.716;2023-06-14T10:03:29;5.68;;;4.90;;
21386;SDS011;10854;45.922;6.716;2023-06-14T10:06:07;5.97;;;5.47;;
21386;SDS011;10854;45.922;6.716;2023-06-14T10:08:37;8.07;;;5.97;;
21386;SDS011;10854;45.922;6.716;2023-06-14T10:11:07;6.43;;;5.35;;
21386;SDS011;10854;45.922;6.716;2023-06-14T10:13:36;7.07;;;5.50;;
21386;SDS011;10854;45.922;6.716;2023-06-14T10:16:18;7.05;;;5.78;;
21386;SDS011;10854;45.922;6.716;2023-06-14T10:19:04;6.15;;;5.55;;
21386;SDS011;10854;45.922;6.716;2023-06-14T10:24:29;5.75;;;5.25;;
21386;SDS011;10854;45.922;6.716;2023-06-14T10:27:13;5.35;;;4.85;;
21386;SDS011;10854;45.922;6.716;2023-06-14T10:32:29;8.00;;;5.32;;
21386;SDS011;10854;45.922;6.716;2023-06-14T10:35:05;6.00;;;5.40;;
21386;SDS011;10854;45.922;6.716;2023-06-14T10:37:34;6.78;;;5.35;;
21386;SDS011;10854;45.922;6.716;2023-06-14T10:40:03;5.38;;;4.88;;
21386;SDS011;10854;45.922;6.716;2023-06-14T10:42:36;6.68;;;5.38;;
21386;SDS011;10854;45.922;6.716;2023-06-14T10:45:05;6.43;;;5.07;;
21386;SDS011;10854;45.922;6.716;2023-06-14T10:47:34;5.93;;;5.43;;
21386;SDS011;10854;45.922;6.716;2023-06-14T10:50:05;7.20;;;5.32;;
21386;SDS011;10854;45.922;6.716;2023-06-14T10:52:39;7.00;;;5.18;;
21386;SDS011;10854;45.922;6.716;2023-06-14T10:55:16;5.25;;;4.75;;
21386;SDS011;10854;45.922;6.716;2023-06-14T10:57:50;6.47;;;5.10;;
21386;SDS011;10854;45.922;6.716;2023-06-14T11:00:24;4.82;;;4.43;;
21386;SDS011;10854;45.922;6.716;2023-06-14T11:06:10;5.53;;;5.03;;
21386;SDS011;10854;45.922;6.716;2023-06-14T11:09:06;5.45;;;4.97;;
21386;SDS011;10854;45.922;6.716;2023-06-14T11:12:01;6.05;;;5.35;;
21386;SDS011;10854;45.922;6.716;2023-06-14T11:14:30;5.78;;;5.28;;
21386;SDS011;10854;45.922;6.716;2023-06-14T11:16:59;6.28;;;5.22;;
21386;SDS011;10854;45.922;6.716;2023-06-14T11:19:28;5.38;;;4.97;;
21386;SDS011;10854;45.922;6.716;2023-06-14T11:21:57;5.90;;;5.05;;
21386;SDS011;10854;45.922;6.716;2023-06-14T11:24:26;5.32;;;4.90;;
21386;SDS011;10854;45.922;6.716;2023-06-14T11:26:55;5.30;;;4.43;;
21386;SDS011;10854;45.922;6.716;2023-06-14T11:29:24;5.45;;;4.82;;
21386;SDS011;10854;45.922;6.716;2023-06-14T11:31:53;9.10;;;5.10;;
21386;SDS011;10854;45.922;6.716;2023-06-14T11:34:22;17.63;;;5.82;;
21386;SDS011;10854;45.922;6.716;2023-06-14T11:36:52;8.07;;;5.50;;
21386;SDS011;10854;45.922;6.716;2023-06-14T11:39:23;5.70;;;5.10;;
21386;SDS011;10854;45.922;6.716;2023-06-14T11:41:53;6.55;;;4.80;;
21386;SDS011;10854;45.922;6.716;2023-06-14T11:44:23;5.70;;;5.20;;
21386;SDS011;10854;45.922;6.716;2023-06-14T11:46:52;6.00;;;5.50;;
21386;SDS011;10854;45.922;6.716;2023-06-14T11:49:21;6.20;;;5.40;;
21386;SDS011;10854;45.922;6.716;2023-06-14T11:51:49;6.70;;;4.85;;
21386;SDS011;10854;45.922;6.716;2023-06-14T11:54:17;5.15;;;4.55;;
21386;SDS011;10854;45.922;6.716;2023-06-14T11:56:47;6.65;;;5.18;;
21386;SDS011;10854;45.922;6.716;2023-06-14T11:59:15;5.85;;;5.15;;
21386;SDS011;10854;45.922;6.716;2023-06-14T12:01:44;5.60;;;5.10;;
21386;SDS011;10854;45.922;6.716;2023-06-14T12:04:13;5.00;;;4.53;;
21386;SDS011;10854;45.922;6.716;2023-06-14T12:06:41;6.43;;;4.63;;
21386;SDS011;10854;45.922;6.716;2023-06-14T12:09:11;5.25;;;4.63;;
21386;SDS011;10854;45.922;6.716;2023-06-14T12:11:44;5.68;;;4.97;;
21386;SDS011;10854;45.922;6.716;2023-06-14T12:14:13;8.48;;;5.40;;
21386;SDS011;10854;45.922;6.716;2023-06-14T12:16:41;5.57;;;5.07;;
21386;SDS011;10854;45.922;6.716;2023-06-14T12:19:15;9.70;;;4.82;;
21386;SDS011;10854;45.922;6.716;2023-06-14T12:21:46;5.25;;;4.57;;
21386;SDS011;10854;45.922;6.716;2023-06-14T12:24:19;5.38;;;4.88;;
21386;SDS011;10854;45.922;6.716;2023-06-14T12:26:48;6.18;;;4.65;;
21386;SDS011;10854;45.922;6.716;2023-06-14T12:29:20;8.25;;;4.80;;
21386;SDS011;10854;45.922;6.716;2023-06-14T12:31:48;8.63;;;5.40;;
21386;SDS011;10854;45.922;6.716;2023-06-14T12:34:17;6.20;;;4.97;;
21386;SDS011;10854;45.922;6.716;2023-06-14T12:36:46;5.45;;;4.95;;
21386;SDS011;10854;45.922;6.716;2023-06-14T12:39:14;7.57;;;4.80;;
21386;SDS011;10854;45.922;6.716;2023-06-14T12:41:43;5.07;;;4.68;;
21386;SDS011;10854;45.922;6.716;2023-06-14T12:44:12;4.97;;;4.38;;
21386;SDS011;10854;45.922;6.716;2023-06-14T12:46:43;5.50;;;4.78;;
21386;SDS011;10854;45.922;6.716;2023-06-14T12:49:12;5.80;;;5.10;;
21386;SDS011;10854;45.922;6.716;2023-06-14T12:51:41;6.35;;;4.40;;
21386;SDS011;10854;45.922;6.716;2023-06-14T12:54:09;5.47;;;4.85;;
21386;SDS011;10854;45.922;6.716;2023-06-14T12:56:38;6.15;;;4.78;;
21386;SDS011;10854;45.922;6.716;2023-06-14T12:59:06;7.30;;;4.60;;
21386;SDS011;10854;45.922;6.716;2023-06-14T13:01:35;4.97;;;4.47;;
21386;SDS011;10854;45.922;6.716;2023-06-14T13:04:05;6.03;;;4.63;;
21386;SDS011;10854;45.922;6.716;2023-06-14T13:06:33;5.53;;;4.43;;
21386;SDS011;10854;45.922;6.716;2023-06-14T13:09:02;4.68;;;4.20;;
21386;SDS011;10854;45.922;6.716;2023-06-14T13:11:31;7.28;;;4.35;;
21386;SDS011;10854;45.922;6.716;2023-06-14T13:14:00;5.32;;;4.40;;
21386;SDS011;10854;45.922;6.716;2023-06-14T13:16:34;5.00;;;4.20;;
21386;SDS011;10854;45.922;6.716;2023-06-14T13:19:03;6.50;;;4.45;;
21386;SDS011;10854;45.922;6.716;2023-06-14T13:21:31;4.90;;;4.38;;
21386;SDS011;10854;45.922;6.716;2023-06-14T13:24:00;6.22;;;4.32;;
21386;SDS011;10854;45.922;6.716;2023-06-14T13:26:29;5.97;;;4.38;;
21386;SDS011;10854;45.922;6.716;2023-06-14T13:28:57;6.03;;;4.28;;
21386;SDS011;10854;45.922;6.716;2023-06-14T13:31:26;5.85;;;4.28;;
21386;SDS011;10854;45.922;6.716;2023-06-14T13:33:54;5.13;;;4.30;;
21386;SDS011;10854;45.922;6.716;2023-06-14T13:36:23;6.03;;;4.05;;
21386;SDS011;10854;45.922;6.716;2023-06-14T13:38:52;4.78;;;4.13;;
21386;SDS011;10854;45.922;6.716;2023-06-14T13:41:22;4.93;;;4.47;;
21386;SDS011;10854;45.922;6.716;2023-06-14T13:43:53;5.10;;;4.30;;
21386;SDS011;10854;45.922;6.716;2023-06-14T13:46:21;4.65;;;4.20;;
21386;SDS011;10854;45.922;6.716;2023-06-14T13:48:50;5.72;;;4.72;;
21386;SDS011;10854;45.922;6.716;2023-06-14T13:51:18;4.75;;;4.32;;
21386;SDS011;10854;45.922;6.716;2023-06-14T13:53:48;6.03;;;4.00;;
21386;SDS011;10854;45.922;6.716;2023-06-14T13:56:18;5.60;;;4.28;;
21386;SDS011;10854;45.922;6.716;2023-06-14T13:58:47;4.75;;;4.32;;
21386;SDS011;10854;45.922;6.716;2023-06-14T14:01:15;10.73;;;4.55;;
21386;SDS011;10854;45.922;6.716;2023-06-14T14:03:46;9.25;;;4.32;;
21386;SDS011;10854;45.922;6.716;2023-06-14T14:06:17;4.60;;;4.20;;
21386;SDS011;10854;45.922;6.716;2023-06-14T14:08:45;4.75;;;4.20;;
21386;SDS011;10854;45.922;6.716;2023-06-14T14:11:13;4.85;;;3.97;;
21386;SDS011;10854;45.922;6.716;2023-06-14T14:13:43;9.55;;;4.72;;
21386;SDS011;10854;45.922;6.716;2023-06-14T14:16:12;6.10;;;4.20;;
21386;SDS011;10854;45.922;6.716;2023-06-14T14:18:42;5.65;;;4.43;;
21386;SDS011;10854;45.922;6.716;2023-06-14T14:21:10;6.22;;;4.32;;
21386;SDS011;10854;45.922;6.716;2023-06-14T14:23:39;5.65;;;4.47;;
21386;SDS011;10854;45.922;6.716;2023-06-14T14:26:09;4.60;;;4.20;;
21386;SDS011;10854;45.922;6.716;2023-06-14T14:28:37;4.70;;;4.25;;
21386;SDS011;10854;45.922;6.716;2023-06-14T14:31:06;5.35;;;4.22;;
21386;SDS011;10854;45.922;6.716;2023-06-14T14:33:34;7.60;;;4.20;;
21386;SDS011;10854;45.922;6.716;2023-06-14T14:36:04;7.60;;;4.53;;
21386;SDS011;10854;45.922;6.716;2023-06-14T14:38:34;5.38;;;4.43;;
21386;SDS011;10854;45.922;6.716;2023-06-14T14:41:03;5.97;;;4.90;;
21386;SDS011;10854;45.922;6.716;2023-06-14T14:43:31;6.75;;;4.40;;
21386;SDS011;10854;45.922;6.716;2023-06-14T14:46:00;5.53;;;4.57;;
21386;SDS011;10854;45.922;6.716;2023-06-14T14:48:28;6.63;;;4.30;;
21386;SDS011;10854;45.922;6.716;2023-06-14T14:50:57;6.55;;;4.25;;
21386;SDS011;10854;45.922;6.716;2023-06-14T14:53:25;5.93;;;4.20;;
21386;SDS011;10854;45.922;6.716;2023-06-14T14:55:54;7.68;;;4.50;;
21386;SDS011;10854;45.922;6.716;2023-06-14T14:58:22;7.82;;;4.20;;
21386;SDS011;10854;45.922;6.716;2023-06-14T15:00:52;4.80;;;4.22;;
21386;SDS011;10854;45.922;6.716;2023-06-14T15:03:20;5.72;;;4.50;;
21386;SDS011;10854;45.922;6.716;2023-06-14T15:05:49;4.47;;;3.92;;
21386;SDS011;10854;45.922;6.716;2023-06-14T15:08:19;5.22;;;3.97;;
21386;SDS011;10854;45.922;6.716;2023-06-14T15:10:48;5.97;;;4.68;;
21386;SDS011;10854;45.922;6.716;2023-06-14T15:13:19;5.93;;;4.30;;
21386;SDS011;10854;45.922;6.716;2023-06-14T15:15:47;4.78;;;4.35;;